Time;durP1;ratioP1;P1;durP2;ratioP2;P2;SDS_P1;SDS_P2;PMS_P1;PMS_P2;Temp;Humidity;BMP_temperature;BMP_pressure;BME280_temperature;BME280_humidity;BME280_pressure;Samples;Min_cycle;Max_cycle;Signal;HPM_P1;HPM_P2
2022/02/06 00:02:23;;;;;;;;;;;;;;;;;;5009143;28;19926;-66
2022/02/06 00:04:51;;;;;;;;;;;;;;;;;;5010690;28;20440;-66
2022/02/06 00:07:18;;;;;;;;;;;;;;;;;;5008550;28;19932;-66
2022/02/06 00:09:46;;;;;;;;;;;;;;;;;;5012800;28;19926;-66
2022/02/06 00:12:13;;;;;;;;;;;;;;;;;;5011176;28;19933;-66
2022/02/06 00:14:40;;;;;;;;;;;;;;;;;;5012450;28;20387;-66
2022/02/06 00:17:07;;;;;;;;;;;;;;;;;;5010135;28;19929;-66
2022/02/06 00:19:34;;;;;;;;;;;;;;;;;;5011726;28;19932;-66
2022/02/06 00:22:02;;;;;;;;;;;;;;;;;;5011025;28;20430;-66
2022/02/06 00:24:38;;;;;;;;;;;;;;;;;;5009917;28;20314;-67
2022/02/06 00:27:08;;;;;;;;;;;;;;;;;;5013438;28;20012;-66
2022/02/06 00:29:45;;;;;;;;;;;;;;;;;;5011695;28;19932;-65
2022/02/06 00:32:25;;;;;;;;;;;;;;;;;;5011676;28;20008;-66
2022/02/06 00:38:13;;;;;;;;;;;;;;;;;;4947126;28;19931;-66
2022/02/06 00:41:08;;;;;;;;;;;;;;;;;;5007006;28;19925;-66
2022/02/06 00:43:33;;;;;;;;;;;;;;;;;;5011419;28;19945;-66
2022/02/06 00:46:00;;;;;;;;;;;;;;;;;;5009782;28;19925;-66
2022/02/06 00:48:29;;;;;;;;;;;;;;;;;;5011974;28;19934;-66
2022/02/06 00:51:04;;;;;;;;;;;;;;;;;;5011920;28;19926;-66
2022/02/06 00:53:31;;;;;;;;;;;;;;;;;;5009796;28;19926;-66
2022/02/06 00:55:58;;;;;;;;;;;;;;;;;;5007630;28;20015;-66
2022/02/06 00:58:25;;;;;;;;;;;;;;;;;;5009226;28;20315;-66
2022/02/06 01:00:52;;;;;;;;;;;;;;;;;;5011192;28;20303;-66
2022/02/06 01:03:19;;;;;;;;;;;;;;;;;;5011351;28;19926;-66
2022/02/06 01:05:46;;;;;;;;;;;;;;;;;;5011665;28;19975;-65
2022/02/06 01:08:13;;;;;;;;;;;;;;;;;;5010261;28;19937;-65
2022/02/06 01:10:40;;;;;;;;;;;;;;;;;;5010630;28;20008;-65
2022/02/06 01:13:17;;;;;;;;;;;;;;;;;;5010568;28;19929;-65
2022/02/06 01:15:50;;;;;;;;;;;;;;;;;;5010949;28;19926;-65
2022/02/06 01:18:24;;;;;;;;;;;;;;;;;;5005076;28;19956;-66
2022/02/06 01:20:58;;;;;;;;;;;;;;;;;;5009011;28;19936;-65
2022/02/06 01:23:29;;;;;;;;;;;;;;;;;;5011591;28;19926;-66
2022/02/06 01:26:00;;;;;;;;;;;;;;;;;;5010905;28;19976;-65
2022/02/06 01:28:34;;;;;;;;;;;;;;;;;;5006773;28;19933;-65
2022/02/06 01:31:08;;;;;;;;;;;;;;;;;;5008006;28;20533;-65
2022/02/06 01:33:40;;;;;;;;;;;;;;;;;;5010844;28;19969;-65
2022/02/06 01:36:18;;;;;;;;;;;;;;;;;;5010342;28;19937;-65
2022/02/06 01:39:01;;;;;;;;;;;;;;;;;;5008049;28;19969;-65
2022/02/06 01:41:36;;;;;;;;;;;;;;;;;;5010586;28;19932;-65
2022/02/06 01:44:08;;;;;;;;;;;;;;;;;;5032966;22;20288;-64
2022/02/06 01:46:48;;;;;;;;;;;;;;;;;;5029452;28;19933;-65
2022/02/06 02:00:33;;;;;;;;;;;;;;;;;;5032883;28;19967;-65
2022/02/06 02:03:07;;;;;;;;;;;;;;;;;;5027889;28;19924;-64
2022/02/06 02:14:04;;;;;;;;;;;;;;;;;;5027648;28;19945;-64
2022/02/06 02:17:03;;;;;;;;;;;;;;;;;;5031085;28;20022;-65
2022/02/06 02:25:28;;;;;;;;;;;;;;;;;;5020882;28;19921;-65
2022/02/06 02:28:13;;;;;;;;;;;;;;;;;;5029912;28;19979;-65
2022/02/06 02:31:06;;;;;;;;;;;;;;;;;;5027664;28;20032;-65
2022/02/06 02:42:53;;;;;;;;;;;;;;;;;;5028624;28;19932;-63
2022/02/06 02:47:29;;;;;;;;;;;;;;;;;;5016022;28;19972;-66
2022/02/06 02:49:58;;;;;;;;;;;;;;;;;;5031069;28;19933;-65
2022/02/06 02:57:55;;;;;;;;;;;;;;;;;;5024469;28;20023;-65
2022/02/06 03:00:30;;;;;;;;;;;;;;;;;;5027636;28;20366;-66
2022/02/06 03:03:08;;;;;;;;;;;;;;;;;;5030169;28;19940;-64
2022/02/06 03:05:35;;;;;;;;;;;;;;;;;;5028277;28;20388;-66
2022/02/06 03:08:05;;;;;;;;;;;;;;;;;;5029517;28;20003;-66
2022/02/06 03:10:32;;;;;;;;;;;;;;;;;;5024975;28;20383;-66
2022/02/06 03:13:01;;;;;;;;;;;;;;;;;;5028878;28;20632;-65
2022/02/06 03:15:38;;;;;;;;;;;;;;;;;;5028875;28;19929;-66
2022/02/06 03:18:06;;;;;;;;;;;;;;;;;;5028810;28;20007;-66
2022/02/06 03:20:35;;;;;;;;;;;;;;;;;;5028809;28;20399;-66
2022/02/06 03:23:04;;;;;;;;;;;;;;;;;;5029508;28;19925;-67
2022/02/06 03:25:33;;;;;;;;;;;;;;;;;;5030855;28;19947;-65
2022/02/06 03:28:00;;;;;;;;;;;;;;;;;;5027507;28;19933;-65
2022/02/06 03:30:29;;;;;;;;;;;;;;;;;;5028640;28;19979;-65
2022/02/06 03:32:56;;;;;;;;;;;;;;;;;;5029847;28;20023;-65
2022/02/06 03:35:23;;;;;;;;;;;;;;;;;;5029958;28;19947;-64
2022/02/06 03:37:50;;;;;;;;;;;;;;;;;;5031461;28;19933;-65
2022/02/06 03:40:22;;;;;;;;;;;;;;;;;;5030970;28;19991;-64
2022/02/06 03:43:00;;;;;;;;;;;;;;;;;;5033544;28;20325;-65
2022/02/06 03:45:35;;;;;;;;;;;;;;;;;;5031946;28;20271;-64
2022/02/06 03:48:12;;;;;;;;;;;;;;;;;;5031845;28;19925;-65
2022/02/06 03:50:45;;;;;;;;;;;;;;;;;;5030924;28;19940;-65
2022/02/06 03:53:12;;;;;;;;;;;;;;;;;;5029298;28;19928;-65
2022/02/06 03:55:39;;;;;;;;;;;;;;;;;;5033386;28;19932;-65
2022/02/06 03:58:06;;;;;;;;;;;;;;;;;;5030417;28;20330;-64
2022/02/06 04:00:33;;;;;;;;;;;;;;;;;;5031096;28;19940;-66
2022/02/06 04:03:00;;;;;;;;;;;;;;;;;;5034111;28;19932;-65
2022/02/06 04:05:27;;;;;;;;;;;;;;;;;;5032887;28;19929;-65
2022/02/06 04:07:54;;;;;;;;;;;;;;;;;;5031498;28;19925;-66
2022/02/06 04:10:21;;;;;;;;;;;;;;;;;;5033000;28;19925;-65
2022/02/06 04:12:49;;;;;;;;;;;;;;;;;;5030824;28;19936;-65
2022/02/06 04:15:22;;;;;;;;;;;;;;;;;;5029405;28;20299;-64
2022/02/06 04:17:55;;;;;;;;;;;;;;;;;;5028872;28;20111;-65
2022/02/06 04:20:22;;;;;;;;;;;;;;;;;;5027842;28;20403;-65
2022/02/06 04:22:49;;;;;;;;;;;;;;;;;;5033048;28;19933;-65
2022/02/06 04:25:16;;;;;;;;;;;;;;;;;;5033109;28;20378;-66
2022/02/06 04:27:43;;;;;;;;;;;;;;;;;;5031318;28;20298;-65
2022/02/06 04:30:10;;;;;;;;;;;;;;;;;;5032569;28;19925;-65
2022/02/06 04:32:37;;;;;;;;;;;;;;;;;;5032721;28;19929;-65
2022/02/06 04:35:04;;;;;;;;;;;;;;;;;;5031997;28;19955;-66
2022/02/06 04:37:37;;;;;;;;;;;;;;;;;;5032141;28;20394;-66
2022/02/06 04:40:16;;;;;;;;;;;;;;;;;;5032049;28;20042;-65
2022/02/06 04:46:02;;;;;;;;;;;;;;;;;;5027662;28;20008;-67
2022/02/06 04:54:29;;;;;;;;;;;;;;;;;;5029098;28;19928;-66
2022/02/06 05:11:30;;;;;;;;;;;;;;;;;;5030634;28;20352;-65
2022/02/06 05:16:54;;;;;;;;;;;;;;;;;;5028629;28;20397;-65
2022/02/06 05:19:52;;;;;;;;;;;;;;;;;;5026331;28;20024;-64
2022/02/06 05:25:27;;;;;;;;;;;;;;;;;;5025330;28;19951;-66
2022/02/06 05:28:21;;;;;;;;;;;;;;;;;;5030258;28;19979;-65
2022/02/06 05:30:51;;;;;;;;;;;;;;;;;;5029082;28;19929;-65
2022/02/06 05:33:18;;;;;;;;;;;;;;;;;;5032050;28;19929;-66
2022/02/06 05:35:45;;;;;;;;;;;;;;;;;;5031402;28;19929;-65
2022/02/06 05:38:12;;;;;;;;;;;;;;;;;;5032398;28;19929;-66
2022/02/06 05:40:39;;;;;;;;;;;;;;;;;;5031319;28;19925;-66
2022/02/06 05:43:06;;;;;;;;;;;;;;;;;;5031811;28;19925;-63
2022/02/06 05:45:33;;;;;;;;;;;;;;;;;;5033149;28;20294;-66
2022/02/06 05:48:00;;;;;;;;;;;;;;;;;;5031591;28;19925;-66
2022/02/06 05:50:27;;;;;;;;;;;;;;;;;;5029576;28;19925;-66
2022/02/06 05:52:54;;;;;;;;;;;;;;;;;;5030443;28;19933;-66
2022/02/06 05:55:21;;;;;;;;;;;;;;;;;;5027550;28;19929;-64
2022/02/06 05:57:48;;;;;;;;;;;;;;;;;;5031940;28;19933;-64
2022/02/06 06:00:15;;;;;;;;;;;;;;;;;;5029301;28;19925;-64
2022/02/06 06:02:42;;;;;;;;;;;;;;;;;;5030381;28;19932;-62
2022/02/06 06:05:09;;;;;;;;;;;;;;;;;;5030851;28;19925;-65
2022/02/06 06:07:35;;;;;;;;;;;;;;;;;;5031694;28;20310;-64
2022/02/06 06:10:02;;;;;;;;;;;;;;;;;;5031584;28;19929;-65
2022/02/06 06:12:29;;;;;;;;;;;;;;;;;;5030670;28;19948;-64
2022/02/06 06:14:56;;;;;;;;;;;;;;;;;;5029025;28;19932;-65
2022/02/06 06:17:23;;;;;;;;;;;;;;;;;;5031251;28;20346;-64
2022/02/06 06:19:50;;;;;;;;;;;;;;;;;;5028068;28;19999;-65
2022/02/06 06:22:19;;;;;;;;;;;;;;;;;;5024514;28;19931;-63
2022/02/06 06:24:51;;;;;;;;;;;;;;;;;;5031569;28;20438;-65
2022/02/06 06:27:18;;;;;;;;;;;;;;;;;;5030562;28;20016;-65
2022/02/06 06:29:45;;;;;;;;;;;;;;;;;;5029527;28;19925;-63
2022/02/06 06:32:12;;;;;;;;;;;;;;;;;;5030284;28;19929;-63
2022/02/06 06:34:39;;;;;;;;;;;;;;;;;;5027691;28;19925;-65
2022/02/06 06:37:06;;;;;;;;;;;;;;;;;;5032001;28;19936;-64
2022/02/06 06:39:37;;;;;;;;;;;;;;;;;;5030756;28;20406;-65
2022/02/06 06:42:04;;;;;;;;;;;;;;;;;;5028977;28;19965;-64
2022/02/06 06:44:32;;;;;;;;;;;;;;;;;;5029081;28;19948;-65
2022/02/06 06:46:59;;;;;;;;;;;;;;;;;;5028925;28;19925;-63
2022/02/06 06:49:26;;;;;;;;;;;;;;;;;;5029478;28;19925;-64
2022/02/06 06:51:54;;;;;;;;;;;;;;;;;;5030848;28;19932;-65
2022/02/06 06:54:22;;;;;;;;;;;;;;;;;;5029331;28;19968;-63
2022/02/06 06:56:55;;;;;;;;;;;;;;;;;;5030986;28;19925;-65
2022/02/06 06:59:43;;;;;;;;;;;;;;;;;;5026309;28;20047;-64
2022/02/06 07:02:18;;;;;;;;;;;;;;;;;;5030713;28;19929;-64
2022/02/06 07:04:44;;;;;;;;;;;;;;;;;;5029220;28;19925;-65
2022/02/06 07:07:11;;;;;;;;;;;;;;;;;;5029877;28;19925;-64
2022/02/06 07:09:38;;;;;;;;;;;;;;;;;;5027710;28;19936;-65
2022/02/06 07:12:06;;;;;;;;;;;;;;;;;;5032541;28;19929;-65
2022/02/06 07:14:33;;;;;;;;;;;;;;;;;;5031645;28;19972;-64
2022/02/06 07:17:00;;;;;;;;;;;;;;;;;;5035342;28;19925;-63
2022/02/06 07:19:27;;;;;;;;;;;;;;;;;;5032960;28;19925;-61
2022/02/06 07:21:55;;;;;;;;;;;;;;;;;;5034760;28;20383;-64
2022/02/06 07:24:25;;;;;;;;;;;;;;;;;;5030397;28;19925;-63
2022/02/06 07:26:55;;;;;;;;;;;;;;;;;;5032452;28;19971;-64
2022/02/06 07:29:23;;;;;;;;;;;;;;;;;;5031785;28;19964;-65
2022/02/06 07:31:51;;;;;;;;;;;;;;;;;;5032244;28;20600;-66
2022/02/06 07:34:18;;;;;;;;;;;;;;;;;;5031339;28;19929;-64
2022/02/06 07:36:45;;;;;;;;;;;;;;;;;;5032783;28;20372;-64
2022/02/06 07:39:12;;;;;;;;;;;;;;;;;;5028578;28;19929;-62
2022/02/06 07:41:39;;;;;;;;;;;;;;;;;;5034325;28;19925;-65
2022/02/06 07:44:06;;;;;;;;;;;;;;;;;;5044635;22;19932;-65
2022/02/06 07:46:42;;;;;;;;;;;;;;;;;;5092439;28;20085;-65
2022/02/06 07:49:09;;;;;;;;;;;;;;;;;;5091771;28;19996;-66
2022/02/06 07:51:36;;;;;;;;;;;;;;;;;;5092756;28;19931;-65
2022/02/06 07:54:03;;;;;;;;;;;;;;;;;;5090646;28;21065;-68
2022/02/06 07:56:31;;;;;;;;;;;;;;;;;;5073055;28;19931;-65
2022/02/06 07:58:58;;;;;;;;;;;;;;;;;;5073209;28;19925;-65
2022/02/06 08:01:25;;;;;;;;;;;;;;;;;;5068665;28;19960;-65
2022/02/06 08:03:52;;;;;;;;;;;;;;;;;;5075173;28;19925;-66
2022/02/06 08:06:19;;;;;;;;;;;;;;;;;;5073321;28;19924;-66
2022/02/06 08:08:46;;;;;;;;;;;;;;;;;;5068860;28;20381;-65
2022/02/06 08:11:14;;;;;;;;;;;;;;;;;;5069571;28;19925;-65
2022/02/06 08:13:44;;;;;;;;;;;;;;;;;;5074574;28;19932;-66
2022/02/06 08:16:11;;;;;;;;;;;;;;;;;;5070265;28;19986;-65
2022/02/06 08:18:40;;;;;;;;;;;;;;;;;;5069222;28;20003;-65
2022/02/06 08:21:07;;;;;;;;;;;;;;;;;;5070300;28;19924;-65
2022/02/06 08:23:34;;;;;;;;;;;;;;;;;;5071211;28;19936;-66
2022/02/06 08:26:01;;;;;;;;;;;;;;;;;;5068471;28;19947;-66
2022/02/06 08:28:28;;;;;;;;;;;;;;;;;;5071463;28;19932;-66
2022/02/06 08:30:55;;;;;;;;;;;;;;;;;;5069622;28;19924;-66
2022/02/06 08:33:22;;;;;;;;;;;;;;;;;;5073559;28;19928;-66
2022/02/06 08:35:49;;;;;;;;;;;;;;;;;;5071093;28;19931;-66
2022/02/06 08:38:16;;;;;;;;;;;;;;;;;;5071996;28;20007;-66
2022/02/06 08:40:43;;;;;;;;;;;;;;;;;;5071002;28;19924;-65
2022/02/06 08:43:10;;;;;;;;;;;;;;;;;;5068911;28;19954;-66
2022/02/06 08:45:38;;;;;;;;;;;;;;;;;;5061396;28;19928;-66
2022/02/06 08:48:05;;;;;;;;;;;;;;;;;;5072935;28;20389;-66
2022/02/06 08:50:31;;;;;;;;;;;;;;;;;;5064812;28;19932;-66
2022/02/06 08:52:59;;;;;;;;;;;;;;;;;;5074046;28;19925;-65
2022/02/06 08:55:27;;;;;;;;;;;;;;;;;;5066421;28;20275;-65
2022/02/06 08:57:55;;;;;;;;;;;;;;;;;;5070598;28;19924;-65
2022/02/06 09:00:22;;;;;;;;;;;;;;;;;;5070086;28;19929;-66
2022/02/06 09:02:50;;;;;;;;;;;;;;;;;;5071045;28;19970;-66
2022/02/06 09:05:17;;;;;;;;;;;;;;;;;;5068582;28;19969;-66
2022/02/06 09:07:44;;;;;;;;;;;;;;;;;;5070949;28;19929;-66
2022/02/06 09:10:12;;;;;;;;;;;;;;;;;;5069523;28;19924;-65
2022/02/06 09:12:43;;;;;;;;;;;;;;;;;;5070684;28;19970;-65
2022/02/06 09:15:14;;;;;;;;;;;;;;;;;;5063030;28;20294;-65
2022/02/06 09:17:41;;;;;;;;;;;;;;;;;;5065342;28;19925;-65
2022/02/06 09:20:08;;;;;;;;;;;;;;;;;;5069331;28;19924;-65
2022/02/06 09:22:35;;;;;;;;;;;;;;;;;;5070603;28;19951;-65
2022/02/06 09:25:01;;;;;;;;;;;;;;;;;;5069696;28;19929;-65
2022/02/06 09:27:28;;;;;;;;;;;;;;;;;;5067672;28;19932;-65
2022/02/06 09:29:55;;;;;;;;;;;;;;;;;;5072794;28;19932;-66
2022/02/06 09:37:14;;;;;;;;;;;;;;;;;;5066175;28;19926;-66
2022/02/06 09:39:42;;;;;;;;;;;;;;;;;;5069786;28;19924;-65
2022/02/06 09:42:09;;;;;;;;;;;;;;;;;;5069678;28;20868;-66
2022/02/06 09:44:36;;;;;;;;;;;;;;;;;;5070208;28;19925;-66
2022/02/06 09:47:03;;;;;;;;;;;;;;;;;;5069824;28;19947;-65
2022/02/06 09:49:30;;;;;;;;;;;;;;;;;;5066791;28;19925;-65
2022/02/06 09:51:56;;;;;;;;;;;;;;;;;;5062545;28;19928;-65
2022/02/06 09:54:24;;;;;;;;;;;;;;;;;;5068757;28;19944;-66
2022/02/06 09:56:53;;;;;;;;;;;;;;;;;;5066610;28;19975;-66
2022/02/06 09:59:21;;;;;;;;;;;;;;;;;;5068081;28;19928;-66
2022/02/06 10:01:48;;;;;;;;;;;;;;;;;;5068607;28;19930;-65
2022/02/06 10:04:14;;;;;;;;;;;;;;;;;;5074757;28;19925;-68
2022/02/06 10:06:41;;;;;;;;;;;;;;;;;;5064817;28;19924;-65
2022/02/06 10:09:08;;;;;;;;;;;;;;;;;;5071622;28;19924;-66
2022/02/06 10:11:38;;;;;;;;;;;;;;;;;;5054489;28;20314;-65
2022/02/06 10:14:05;;;;;;;;;;;;;;;;;;5062430;28;19954;-65
2022/02/06 10:16:32;;;;;;;;;;;;;;;;;;5055229;28;19925;-66
2022/02/06 10:18:59;;;;;;;;;;;;;;;;;;5062666;28;19928;-66
2022/02/06 10:21:25;;;;;;;;;;;;;;;;;;5070091;28;20294;-66
2022/02/06 10:23:59;;;;;;;;;;;;;;;;;;5062178;28;19929;-66
2022/02/06 10:26:31;;;;;;;;;;;;;;;;;;5061587;28;19924;-66
2022/02/06 10:29:09;;;;;;;;;;;;;;;;;;5064381;28;19924;-67
2022/02/06 10:31:35;;;;;;;;;;;;;;;;;;5064201;28;19924;-66
2022/02/06 10:34:02;;;;;;;;;;;;;;;;;;5065450;28;19940;-65
2022/02/06 10:36:34;;;;;;;;;;;;;;;;;;5067400;28;19932;-65
2022/02/06 10:39:01;;;;;;;;;;;;;;;;;;5069858;28;19925;-65
2022/02/06 10:41:28;;;;;;;;;;;;;;;;;;5064897;28;19929;-68
2022/02/06 10:43:55;;;;;;;;;;;;;;;;;;5059187;28;20332;-65
2022/02/06 10:46:22;;;;;;;;;;;;;;;;;;5062657;28;19929;-66
2022/02/06 10:48:49;;;;;;;;;;;;;;;;;;5069508;28;20423;-66
2022/02/06 10:51:16;;;;;;;;;;;;;;;;;;5065376;28;19931;-65
2022/02/06 10:53:43;;;;;;;;;;;;;;;;;;5059030;28;19928;-65
2022/02/06 10:56:10;;;;;;;;;;;;;;;;;;5066303;28;19928;-66
2022/02/06 10:58:38;;;;;;;;;;;;;;;;;;5062408;28;19934;-65
2022/02/06 11:01:04;;;;;;;;;;;;;;;;;;5061813;28;20390;-67
2022/02/06 11:03:34;;;;;;;;;;;;;;;;;;5061308;28;19935;-64
2022/02/06 11:06:08;;;;;;;;;;;;;;;;;;5055833;28;20365;-64
2022/02/06 11:08:36;;;;;;;;;;;;;;;;;;5061177;28;20421;-67
2022/02/06 11:11:03;;;;;;;;;;;;;;;;;;5054509;28;19928;-66
2022/02/06 11:13:31;;;;;;;;;;;;;;;;;;5060194;28;20388;-64
2022/02/06 11:16:00;;;;;;;;;;;;;;;;;;5055076;28;20340;-65
2022/02/06 11:18:33;;;;;;;;;;;;;;;;;;5057933;28;20504;-65
2022/02/06 11:20:59;;;;;;;;;;;;;;;;;;5057210;28;19925;-65
2022/02/06 11:23:26;;;;;;;;;;;;;;;;;;5057810;28;20298;-64
2022/02/06 11:25:53;;;;;;;;;;;;;;;;;;5063712;28;19954;-64
2022/02/06 11:28:20;;;;;;;;;;;;;;;;;;5062556;28;19928;-66
2022/02/06 11:30:47;;;;;;;;;;;;;;;;;;5057034;28;19933;-65
2022/02/06 11:33:15;;;;;;;;;;;;;;;;;;5057570;28;20409;-64
2022/02/06 11:35:44;;;;;;;;;;;;;;;;;;5059321;28;19928;-66
2022/02/06 11:43:50;;;;;;;;;;;;;;;;;;5046701;28;19921;-66
2022/02/06 11:46:18;;;;;;;;;;;;;;;;;;5058503;28;19925;-69
2022/02/06 11:48:45;;;;;;;;;;;;;;;;;;5051449;28;19929;-65
2022/02/06 11:51:12;;;;;;;;;;;;;;;;;;5056919;28;21272;-66
2022/02/06 11:53:39;;;;;;;;;;;;;;;;;;5055438;28;19925;-66
2022/02/06 11:56:06;;;;;;;;;;;;;;;;;;5060839;28;19929;-66
2022/02/06 11:58:33;;;;;;;;;;;;;;;;;;5063157;28;19940;-66
2022/02/06 12:01:00;;;;;;;;;;;;;;;;;;5071616;28;20554;-65
2022/02/06 12:03:27;;;;;;;;;;;;;;;;;;5066425;28;19925;-65
2022/02/06 12:05:54;;;;;;;;;;;;;;;;;;5066523;28;20311;-65
2022/02/06 12:08:20;;;;;;;;;;;;;;;;;;5062335;28;19929;-65
2022/02/06 12:10:47;;;;;;;;;;;;;;;;;;5061181;28;19931;-65
2022/02/06 12:13:14;;;;;;;;;;;;;;;;;;5062351;28;19939;-66
2022/02/06 12:15:45;;;;;;;;;;;;;;;;;;5060424;28;19925;-65
2022/02/06 12:18:13;;;;;;;;;;;;;;;;;;5060523;28;19928;-66
2022/02/06 12:20:40;;;;;;;;;;;;;;;;;;5056316;28;19990;-65
2022/02/06 12:23:07;;;;;;;;;;;;;;;;;;5060469;28;20365;-65
2022/02/06 12:25:35;;;;;;;;;;;;;;;;;;5063173;28;19931;-65
2022/02/06 12:28:02;;;;;;;;;;;;;;;;;;5061319;28;19933;-65
2022/02/06 12:30:31;;;;;;;;;;;;;;;;;;5057907;28;19989;-65
2022/02/06 12:32:58;;;;;;;;;;;;;;;;;;5058562;28;19925;-65
2022/02/06 12:38:09;;;;;;;;;;;;;;;;;;5058997;28;20679;-66
2022/02/06 12:40:36;;;;;;;;;;;;;;;;;;5061895;28;19931;-65
2022/02/06 12:43:05;;;;;;;;;;;;;;;;;;5059854;28;19933;-66
2022/02/06 12:45:32;;;;;;;;;;;;;;;;;;5056442;28;19924;-65
2022/02/06 12:47:59;;;;;;;;;;;;;;;;;;5069984;28;19936;-64
2022/02/06 12:50:26;;;;;;;;;;;;;;;;;;5062954;28;19924;-67
2022/02/06 12:52:53;;;;;;;;;;;;;;;;;;5073132;28;19928;-66
2022/02/06 12:55:19;;;;;;;;;;;;;;;;;;5067598;28;20019;-66
2022/02/06 12:57:46;;;;;;;;;;;;;;;;;;5061935;28;20023;-66
2022/02/06 13:00:13;;;;;;;;;;;;;;;;;;5063633;28;19967;-65
2022/02/06 13:02:40;;;;;;;;;;;;;;;;;;5068586;28;19931;-66
2022/02/06 13:05:12;;;;;;;;;;;;;;;;;;5069862;28;20294;-66
2022/02/06 13:07:39;;;;;;;;;;;;;;;;;;5070999;28;20419;-66
2022/02/06 13:10:06;;;;;;;;;;;;;;;;;;5059427;28;19924;-65
2022/02/06 13:12:40;;;;;;;;;;;;;;;;;;5064073;28;19933;-65
2022/02/06 13:15:34;;;;;;;;;;;;;;;;;;5054709;28;19928;-65
2022/02/06 13:18:14;;;;;;;;;;;;;;;;;;5065526;28;19932;-65
2022/02/06 13:20:52;;;;;;;;;;;;;;;;;;5062566;28;20590;-64
2022/02/06 13:23:27;;;;;;;;;;;;;;;;;;5065776;28;19932;-65
2022/02/06 13:26:05;;;;;;;;;;;;;;;;;;5057136;28;20850;-64
2022/02/06 13:28:45;;;;;;;;;;;;;;;;;;5062251;28;20395;-65
2022/02/06 13:31:23;;;;;;;;;;;;;;;;;;5065987;28;20383;-64
2022/02/06 13:33:59;;;;;;;;;;;;;;;;;;5069950;28;19947;-65
2022/02/06 13:36:35;;;;;;;;;;;;;;;;;;5069592;28;19940;-65
2022/02/06 13:39:07;;;;;;;;;;;;;;;;;;5066641;28;20350;-65
2022/02/06 13:41:34;;;;;;;;;;;;;;;;;;5065499;28;19924;-65
2022/02/06 13:44:02;;;;;;;;;;;;;;;;;;5072043;28;19924;-64
2022/02/06 13:46:29;;;;;;;;;;;;;;;;;;5060309;22;19971;-63
2022/02/06 13:48:56;;;;;;;;;;;;;;;;;;5043515;28;19932;-62
2022/02/06 13:51:23;;;;;;;;;;;;;;;;;;5046590;28;19933;-62
2022/02/06 13:53:50;;;;;;;;;;;;;;;;;;5046245;28;19925;-61
2022/02/06 13:56:17;;;;;;;;;;;;;;;;;;5028296;28;20341;-62
2022/02/06 13:58:44;;;;;;;;;;;;;;;;;;5029433;28;20236;-63
2022/02/06 14:01:11;;;;;;;;;;;;;;;;;;5031164;28;19929;-62
2022/02/06 14:03:38;;;;;;;;;;;;;;;;;;5028597;28;20003;-62
2022/02/06 14:06:06;;;;;;;;;;;;;;;;;;5031789;28;19925;-62
2022/02/06 14:08:35;;;;;;;;;;;;;;;;;;5028848;28;19964;-62
2022/02/06 14:11:07;;;;;;;;;;;;;;;;;;5026686;28;19932;-62
2022/02/06 14:13:34;;;;;;;;;;;;;;;;;;5026434;28;19925;-63
2022/02/06 14:16:01;;;;;;;;;;;;;;;;;;5028439;28;19925;-64
2022/02/06 14:18:28;;;;;;;;;;;;;;;;;;5026812;28;19932;-62
2022/02/06 14:20:55;;;;;;;;;;;;;;;;;;5031072;28;19925;-63
2022/02/06 14:23:22;;;;;;;;;;;;;;;;;;5028267;28;20039;-63
2022/02/06 14:25:49;;;;;;;;;;;;;;;;;;5025946;28;19932;-63
2022/02/06 14:28:16;;;;;;;;;;;;;;;;;;5028921;28;19932;-62
2022/02/06 14:30:43;;;;;;;;;;;;;;;;;;5029288;28;19936;-62
2022/02/06 14:33:10;;;;;;;;;;;;;;;;;;5031112;28;19936;-63
2022/02/06 14:35:37;;;;;;;;;;;;;;;;;;5025229;28;20036;-63
2022/02/06 14:38:06;;;;;;;;;;;;;;;;;;5030842;28;19933;-64
2022/02/06 14:40:41;;;;;;;;;;;;;;;;;;5020110;28;19936;-63
2022/02/06 14:43:14;;;;;;;;;;;;;;;;;;5028795;28;19925;-63
2022/02/06 14:45:41;;;;;;;;;;;;;;;;;;5024514;28;20034;-62
2022/02/06 14:48:08;;;;;;;;;;;;;;;;;;5026766;28;19929;-62
2022/02/06 14:50:34;;;;;;;;;;;;;;;;;;5025037;28;19925;-63
2022/02/06 14:53:01;;;;;;;;;;;;;;;;;;5029021;28;19925;-64
2022/02/06 14:55:30;;;;;;;;;;;;;;;;;;5023826;28;19952;-64
2022/02/06 14:57:56;;;;;;;;;;;;;;;;;;5027749;28;20002;-63
2022/02/06 15:00:23;;;;;;;;;;;;;;;;;;5029245;28;20399;-62
2022/02/06 15:02:50;;;;;;;;;;;;;;;;;;5030399;28;19925;-62
2022/02/06 15:05:17;;;;;;;;;;;;;;;;;;5026835;28;19937;-66
2022/02/06 15:07:44;;;;;;;;;;;;;;;;;;5027324;28;19929;-63
2022/02/06 15:10:11;;;;;;;;;;;;;;;;;;5026455;28;20339;-62
2022/02/06 15:12:38;;;;;;;;;;;;;;;;;;5031194;28;19931;-62
2022/02/06 15:15:05;;;;;;;;;;;;;;;;;;5031506;28;19948;-64
2022/02/06 15:17:33;;;;;;;;;;;;;;;;;;5028017;28;19933;-62
2022/02/06 15:20:00;;;;;;;;;;;;;;;;;;5026427;28;19925;-63
2022/02/06 15:22:27;;;;;;;;;;;;;;;;;;5028682;28;19925;-63
2022/02/06 15:24:54;;;;;;;;;;;;;;;;;;5029729;28;19956;-62
2022/02/06 15:27:21;;;;;;;;;;;;;;;;;;5026397;28;19937;-61
2022/02/06 15:29:48;;;;;;;;;;;;;;;;;;5027805;28;19925;-62
2022/02/06 15:32:17;;;;;;;;;;;;;;;;;;5031558;28;19944;-64
2022/02/06 15:34:44;;;;;;;;;;;;;;;;;;5033872;28;20341;-63
2022/02/06 15:37:14;;;;;;;;;;;;;;;;;;5031875;28;19936;-63
2022/02/06 15:39:40;;;;;;;;;;;;;;;;;;5032911;28;19925;-62
2022/02/06 15:42:09;;;;;;;;;;;;;;;;;;5032818;28;19925;-64
2022/02/06 15:44:36;;;;;;;;;;;;;;;;;;5034537;28;19968;-63
2022/02/06 15:47:03;;;;;;;;;;;;;;;;;;5032043;28;19925;-64
2022/02/06 15:49:30;;;;;;;;;;;;;;;;;;5029455;28;19963;-63
2022/02/06 15:51:57;;;;;;;;;;;;;;;;;;5034094;28;19972;-63
2022/02/06 15:54:24;;;;;;;;;;;;;;;;;;5032580;28;19936;-64
2022/02/06 15:56:51;;;;;;;;;;;;;;;;;;5027285;28;19960;-63
2022/02/06 15:59:18;;;;;;;;;;;;;;;;;;5030888;28;20302;-64
2022/02/06 16:01:45;;;;;;;;;;;;;;;;;;5029880;28;19925;-64
2022/02/06 16:04:12;;;;;;;;;;;;;;;;;;5029819;28;20026;-64
2022/02/06 16:06:39;;;;;;;;;;;;;;;;;;5022216;28;19979;-61
2022/02/06 16:09:06;;;;;;;;;;;;;;;;;;5025884;28;20386;-62
2022/02/06 16:11:33;;;;;;;;;;;;;;;;;;5025045;28;19932;-63
2022/02/06 16:14:00;;;;;;;;;;;;;;;;;;5027051;28;19925;-62
2022/02/06 16:16:29;;;;;;;;;;;;;;;;;;5029651;28;19952;-64
2022/02/06 16:18:56;;;;;;;;;;;;;;;;;;5029374;28;19979;-64
2022/02/06 16:21:23;;;;;;;;;;;;;;;;;;5027080;28;20311;-63
2022/02/06 16:23:50;;;;;;;;;;;;;;;;;;5027969;28;19925;-63
2022/02/06 16:26:17;;;;;;;;;;;;;;;;;;5028085;28;19995;-63
2022/02/06 16:28:49;;;;;;;;;;;;;;;;;;5029888;28;20466;-63
2022/02/06 16:31:16;;;;;;;;;;;;;;;;;;5027919;28;20311;-63
2022/02/06 16:33:43;;;;;;;;;;;;;;;;;;5028830;28;20347;-64
2022/02/06 16:36:10;;;;;;;;;;;;;;;;;;5024865;28;19976;-64
2022/02/06 16:38:37;;;;;;;;;;;;;;;;;;5025219;28;19929;-64
2022/02/06 16:41:04;;;;;;;;;;;;;;;;;;5025079;28;20535;-63
2022/02/06 16:43:31;;;;;;;;;;;;;;;;;;5025750;28;19925;-62
2022/02/06 16:45:58;;;;;;;;;;;;;;;;;;5025285;28;19928;-63
2022/02/06 16:48:25;;;;;;;;;;;;;;;;;;5025649;28;19971;-63
2022/02/06 16:50:52;;;;;;;;;;;;;;;;;;5027836;28;19932;-63
2022/02/06 16:53:19;;;;;;;;;;;;;;;;;;5028489;28;19931;-63
2022/02/06 16:55:47;;;;;;;;;;;;;;;;;;5023759;28;20282;-64
2022/02/06 16:58:14;;;;;;;;;;;;;;;;;;5027541;28;19933;-63
2022/02/06 17:00:41;;;;;;;;;;;;;;;;;;5027965;28;20016;-63
2022/02/06 17:03:08;;;;;;;;;;;;;;;;;;5027343;28;20133;-64
2022/02/06 17:05:35;;;;;;;;;;;;;;;;;;5027299;28;19925;-65
2022/02/06 17:08:02;;;;;;;;;;;;;;;;;;5025133;28;20419;-64
2022/02/06 17:10:30;;;;;;;;;;;;;;;;;;5026889;28;20019;-63
2022/02/06 17:12:57;;;;;;;;;;;;;;;;;;5026948;28;19967;-64
2022/02/06 17:15:24;;;;;;;;;;;;;;;;;;5024565;28;19929;-64
2022/02/06 17:17:52;;;;;;;;;;;;;;;;;;5028623;28;19976;-63
2022/02/06 17:20:18;;;;;;;;;;;;;;;;;;5026288;28;19925;-63
2022/02/06 17:22:45;;;;;;;;;;;;;;;;;;5026096;28;19931;-63
2022/02/06 17:25:12;;;;;;;;;;;;;;;;;;5025058;28;20020;-64
2022/02/06 17:27:39;;;;;;;;;;;;;;;;;;5028472;28;19979;-63
2022/02/06 17:30:06;;;;;;;;;;;;;;;;;;5026620;28;19925;-63
2022/02/06 17:32:33;;;;;;;;;;;;;;;;;;5027540;28;19926;-63
2022/02/06 17:35:00;;;;;;;;;;;;;;;;;;5027386;28;20016;-64
2022/02/06 17:37:27;;;;;;;;;;;;;;;;;;5025297;28;19926;-63
2022/02/06 17:39:56;;;;;;;;;;;;;;;;;;5025797;28;20425;-64
2022/02/06 17:42:23;;;;;;;;;;;;;;;;;;5023820;28;19925;-64
2022/02/06 17:44:50;;;;;;;;;;;;;;;;;;5025916;28;19929;-64
2022/02/06 17:47:17;;;;;;;;;;;;;;;;;;5027704;28;19936;-64
2022/02/06 17:49:44;;;;;;;;;;;;;;;;;;5022680;28;19973;-65
2022/02/06 17:52:11;;;;;;;;;;;;;;;;;;5024136;28;19931;-65
2022/02/06 17:54:45;;;;;;;;;;;;;;;;;;5023236;28;20057;-64
2022/02/06 17:57:12;;;;;;;;;;;;;;;;;;5027177;28;19936;-64
2022/02/06 17:59:41;;;;;;;;;;;;;;;;;;5022642;28;19925;-64
2022/02/06 18:02:11;;;;;;;;;;;;;;;;;;5027516;28;19929;-64
2022/02/06 18:04:38;;;;;;;;;;;;;;;;;;5022944;28;19925;-64
2022/02/06 18:07:05;;;;;;;;;;;;;;;;;;5027116;28;20391;-64
2022/02/06 18:09:32;;;;;;;;;;;;;;;;;;5024024;28;19931;-64
2022/02/06 18:12:00;;;;;;;;;;;;;;;;;;5025150;28;19971;-63
2022/02/06 18:14:26;;;;;;;;;;;;;;;;;;5022743;28;20015;-64
2022/02/06 18:16:53;;;;;;;;;;;;;;;;;;5025996;28;19929;-63
2022/02/06 18:19:20;;;;;;;;;;;;;;;;;;5026446;28;19925;-64
2022/02/06 18:21:47;;;;;;;;;;;;;;;;;;5026511;28;19925;-64
2022/02/06 18:24:14;;;;;;;;;;;;;;;;;;5022462;28;20251;-64
2022/02/06 18:26:41;;;;;;;;;;;;;;;;;;5027536;28;19968;-64